createdAt,value
2019-05-05T00:04:08.990Z,8.20
2019-05-05T00:08:55.303Z,7.20
2019-05-05T00:13:47.197Z,8.10
2019-05-05T00:18:34.652Z,8.53
2019-05-05T00:23:20.385Z,8.70
2019-05-05T00:28:06.333Z,7.83
2019-05-05T00:32:52.022Z,8.57
2019-05-05T00:37:37.754Z,8.43
2019-05-05T00:42:24.765Z,7.90
2019-05-05T00:47:25.085Z,8.43
2019-05-05T00:52:11.318Z,9.10
2019-05-05T00:56:56.972Z,8.93
2019-05-05T01:02:07.528Z,9.57
2019-05-05T01:06:54.444Z,8.97
2019-05-05T01:11:41.523Z,9.17
2019-05-05T01:16:27.201Z,9.10
2019-05-05T01:21:14.899Z,9.03
2019-05-05T01:26:01.130Z,9.27
2019-05-05T01:30:49.652Z,9.30
2019-05-05T01:35:35.538Z,9.80
2019-05-05T01:40:46.060Z,9.73
2019-05-05T01:45:31.792Z,10.67
2019-05-05T01:50:21.124Z,10.20
2019-05-05T01:55:05.302Z,9.60
2019-05-05T01:59:51.474Z,9.20
2019-05-05T02:04:37.154Z,9.17
2019-05-05T02:09:24.971Z,6.93
2019-05-05T02:14:10.324Z,5.10
2019-05-05T02:18:56.451Z,4.30
2019-05-05T02:23:42.126Z,4.70
2019-05-05T02:28:30.915Z,5.27
2019-05-05T02:33:16.893Z,4.57
2019-05-05T02:38:02.690Z,4.60
2019-05-05T02:42:49.241Z,5.87
2019-05-05T02:47:56.587Z,5.40
2019-05-05T02:52:44.266Z,5.23
2019-05-05T02:57:30.276Z,4.87
2019-05-05T03:02:20.045Z,4.97
2019-05-05T03:07:06.941Z,5.97
2019-05-05T03:11:55.419Z,6.03
2019-05-05T03:16:43.606Z,6.83
2019-05-05T03:21:33.053Z,6.77
2019-05-05T03:26:18.979Z,6.90
2019-05-05T03:31:05.195Z,7.77
2019-05-05T03:35:51.518Z,6.20
2019-05-05T03:40:39.101Z,5.00
2019-05-05T03:45:47.229Z,5.00
2019-05-05T03:50:34.060Z,4.73
2019-05-05T03:55:20.097Z,4.43
2019-05-05T04:00:07.214Z,4.03
2019-05-05T04:04:54.980Z,3.87
2019-05-05T04:09:40.938Z,4.23
2019-05-05T04:14:26.713Z,3.97
2019-05-05T04:19:13.902Z,3.07
2019-05-05T04:23:59.801Z,3.70
2019-05-05T04:28:45.505Z,3.60
2019-05-05T04:33:31.176Z,3.97
2019-05-05T04:38:16.911Z,3.90
2019-05-05T04:43:03.910Z,3.60
2019-05-05T04:47:53.983Z,3.60
2019-05-05T04:52:39.770Z,3.43
2019-05-05T04:57:25.668Z,3.70
2019-05-05T05:02:36.064Z,3.50
2019-05-05T05:07:21.765Z,3.50
2019-05-05T05:12:07.557Z,3.33
2019-05-05T05:16:54.591Z,3.17
2019-05-05T05:21:40.585Z,3.50
2019-05-05T05:26:26.391Z,3.87
2019-05-05T05:31:14.079Z,3.80
2019-05-05T05:35:59.601Z,5.03
2019-05-05T05:40:50.511Z,5.03
2019-05-05T05:45:43.848Z,6.30
2019-05-05T05:50:36.147Z,7.43
2019-05-05T05:55:23.739Z,7.13
2019-05-05T06:00:09.664Z,9.07
2019-05-05T06:04:55.372Z,10.13
2019-05-05T06:09:41.056Z,10.77
2019-05-05T06:14:26.840Z,10.37
2019-05-05T06:19:14.068Z,9.90
2019-05-05T06:24:00.171Z,10.67
2019-05-05T06:28:45.919Z,9.20
2019-05-05T06:33:31.813Z,10.20
2019-05-05T06:38:17.676Z,10.60
2019-05-05T06:43:16.954Z,10.60
2019-05-05T06:48:04.339Z,11.90
2019-05-05T06:52:50.336Z,13.10
2019-05-05T06:57:36.065Z,12.17
2019-05-05T07:02:23.682Z,13.10
2019-05-05T07:07:09.703Z,14.03
2019-05-05T07:11:55.611Z,12.50
2019-05-05T07:16:41.425Z,12.50
2019-05-05T07:21:31.061Z,11.10
2019-05-05T07:26:17.231Z,13.30
2019-05-05T07:31:04.470Z,12.07
2019-05-05T07:36:01.429Z,11.07
2019-05-05T07:40:43.952Z,11.00
2019-05-05T07:45:30.415Z,12.00
2019-05-05T07:50:32.310Z,13.20
2019-05-05T07:55:08.076Z,14.47
2019-05-05T07:59:54.222Z,15.10
2019-05-05T08:04:40.063Z,11.57
2019-05-05T08:09:27.081Z,11.70
2019-05-05T08:14:14.619Z,12.43
2019-05-05T08:19:35.893Z,13.87
2019-05-05T08:24:28.589Z,14.03
2019-05-05T08:29:39.738Z,11.47
2019-05-05T08:34:26.682Z,8.40
2019-05-05T08:39:14.302Z,9.43
2019-05-05T08:43:59.857Z,7.83
2019-05-05T08:49:06.282Z,8.87
2019-05-05T08:53:54.394Z,7.83
2019-05-05T08:58:39.443Z,7.93
2019-05-05T09:03:25.803Z,7.70
2019-05-05T09:08:14.071Z,7.00
2019-05-05T09:12:59.903Z,8.43
2019-05-05T09:17:45.908Z,8.27
2019-05-05T09:22:32.275Z,6.70
2019-05-05T09:27:49.200Z,6.23
2019-05-05T09:32:35.082Z,6.40
2019-05-05T09:37:21.113Z,5.00
2019-05-05T09:42:06.951Z,5.00
2019-05-05T09:46:53.832Z,4.40
2019-05-05T09:51:40.688Z,4.50
2019-05-05T09:56:26.629Z,4.40
2019-05-05T10:01:14.041Z,3.70
2019-05-05T10:06:00.039Z,4.03
2019-05-05T10:10:46.190Z,4.20
2019-05-05T10:15:32.372Z,4.40
2019-05-05T10:20:18.369Z,5.00
2019-05-05T10:25:23.807Z,4.33
2019-05-05T10:30:10.671Z,5.23
2019-05-05T10:35:04.469Z,4.40
2019-05-05T10:39:54.366Z,3.77
2019-05-05T10:44:40.527Z,3.50
2019-05-05T10:49:26.450Z,2.60
2019-05-05T10:54:15.348Z,2.30
2019-05-05T10:59:01.081Z,2.90
2019-05-05T11:03:46.974Z,3.17
2019-05-05T11:08:34.616Z,3.67
2019-05-05T11:13:42.890Z,2.67
2019-05-05T11:18:28.184Z,2.60
2019-05-05T11:23:14.841Z,2.60
2019-05-05T11:28:03.469Z,2.07
2019-05-05T11:33:07.037Z,2.30
2019-05-05T11:37:54.261Z,2.40
2019-05-05T11:42:40.595Z,2.63
2019-05-05T11:47:26.467Z,2.80
2019-05-05T11:52:12.593Z,1.70
2019-05-05T11:56:58.418Z,1.90
2019-05-05T12:01:44.238Z,2.50
2019-05-05T12:06:30.705Z,3.00
2019-05-05T12:11:17.910Z,2.50
2019-05-05T12:16:05.806Z,2.60
2019-05-05T12:20:54.151Z,2.87
2019-05-05T12:25:57.474Z,2.50
2019-05-05T12:30:44.446Z,2.57
2019-05-05T12:35:30.513Z,2.77
2019-05-05T12:40:16.483Z,1.80
2019-05-05T12:45:05.485Z,2.13
2019-05-05T12:49:51.551Z,1.87
2019-05-05T12:54:38.198Z,1.70
2019-05-05T12:59:26.167Z,1.87
2019-05-05T13:04:34.200Z,1.80
2019-05-05T13:09:24.281Z,1.80
2019-05-05T13:14:11.550Z,1.40
2019-05-05T13:19:00.181Z,1.70
2019-05-05T13:24:01.464Z,1.57
2019-05-05T13:28:49.246Z,1.80
2019-05-05T13:33:37.331Z,2.00
2019-05-05T13:38:24.094Z,2.00
2019-05-05T13:43:10.329Z,2.60
2019-05-05T13:47:56.601Z,2.63
2019-05-05T13:52:44.227Z,3.80
2019-05-05T13:57:30.898Z,3.93
2019-05-05T14:02:20.138Z,5.47
2019-05-05T14:07:06.155Z,3.50
2019-05-05T14:11:53.621Z,3.10
2019-05-05T14:16:40.014Z,3.30
2019-05-05T14:21:26.036Z,3.40
2019-05-05T14:26:24.737Z,3.63
2019-05-05T14:31:07.232Z,2.87
2019-05-05T14:36:05.827Z,3.27
2019-05-05T14:40:53.686Z,2.13
2019-05-05T14:45:39.384Z,2.63
2019-05-05T14:50:25.456Z,3.83
2019-05-05T14:55:13.936Z,3.70
2019-05-05T14:59:59.500Z,2.93
2019-05-05T15:04:45.307Z,2.83
2019-05-05T15:09:54.652Z,2.80
2019-05-05T15:14:40.597Z,2.70
2019-05-05T15:19:28.173Z,2.83
2019-05-05T15:24:14.289Z,3.10
2019-05-05T15:29:01.775Z,3.30
2019-05-05T15:33:47.998Z,3.67
2019-05-05T15:38:34.868Z,4.03
2019-05-05T15:43:21.173Z,3.70
2019-05-05T15:48:08.069Z,3.47
2019-05-05T15:52:54.460Z,3.20
2019-05-05T15:57:40.726Z,3.37
2019-05-05T16:02:26.692Z,3.40
2019-05-05T16:07:13.797Z,2.80
2019-05-05T16:12:00.331Z,3.20
2019-05-05T16:17:04.499Z,3.20
2019-05-05T16:22:17.476Z,4.03
2019-05-05T16:27:05.398Z,3.73
2019-05-05T16:31:49.935Z,4.20
2019-05-05T16:36:36.002Z,4.27
2019-05-05T16:41:23.729Z,5.70
2019-05-05T16:46:09.417Z,4.60
2019-05-05T16:50:55.257Z,5.40
2019-05-05T16:55:53.953Z,5.20
2019-05-05T17:00:39.742Z,5.60
2019-05-05T17:05:25.863Z,5.57
2019-05-05T17:10:13.866Z,5.20
2019-05-05T17:15:38.713Z,4.20
2019-05-05T17:20:25.556Z,5.03
2019-05-05T17:25:13.869Z,4.43
2019-05-05T17:29:59.734Z,4.30
2019-05-05T17:34:46.193Z,4.93
2019-05-05T17:39:34.602Z,5.10
2019-05-05T17:44:27.485Z,5.43
2019-05-05T17:49:30.959Z,5.60
2019-05-05T17:54:21.405Z,5.40
2019-05-05T17:59:07.749Z,5.77
2019-05-05T18:03:54.477Z,4.80
2019-05-05T18:08:53.976Z,5.40
2019-05-05T18:13:43.978Z,5.00
2019-05-05T18:18:30.303Z,5.70
2019-05-05T18:23:16.757Z,5.70
2019-05-05T18:28:13.728Z,5.77
2019-05-05T18:32:50.751Z,11.00
2019-05-05T18:37:37.091Z,13.40
2019-05-05T18:42:25.193Z,6.87
2019-05-05T18:47:18.994Z,7.30
2019-05-05T18:52:05.203Z,5.50
2019-05-05T18:56:53.410Z,5.50
2019-05-05T19:01:51.894Z,5.10
2019-05-05T19:06:58.335Z,4.40
2019-05-05T19:11:44.525Z,4.70
2019-05-05T19:16:30.900Z,4.90
2019-05-05T19:21:31.537Z,5.27
2019-05-05T19:26:17.669Z,4.80
2019-05-05T19:31:04.352Z,5.07
2019-05-05T19:35:50.462Z,5.53
2019-05-05T19:40:36.414Z,5.63
2019-05-05T19:45:24.105Z,5.07
2019-05-05T19:50:17.446Z,5.17
2019-05-05T19:55:04.490Z,4.60
2019-05-05T19:59:50.316Z,4.27
2019-05-05T20:04:36.372Z,4.40
2019-05-05T20:09:24.623Z,3.87
2019-05-05T20:14:10.423Z,4.20
2019-05-05T20:18:56.610Z,4.53
2019-05-05T20:23:43.662Z,4.70
2019-05-05T20:28:30.125Z,4.67
2019-05-05T20:33:34.114Z,4.60
2019-05-05T20:38:43.913Z,6.00
2019-05-05T20:43:29.277Z,6.07
2019-05-05T20:48:15.310Z,5.57
2019-05-05T20:53:01.244Z,5.37
2019-05-05T20:57:47.428Z,5.73
2019-05-05T21:02:33.918Z,6.30
2019-05-05T21:07:19.871Z,8.63
2019-05-05T21:12:05.960Z,8.63
2019-05-05T21:16:51.931Z,8.20
2019-05-05T21:21:39.546Z,6.97
2019-05-05T21:26:47.432Z,6.23
2019-05-05T21:31:34.616Z,6.50
2019-05-05T21:36:21.151Z,6.53
2019-05-05T21:41:07.280Z,6.90
2019-05-05T21:45:53.764Z,7.40
2019-05-05T21:50:44.644Z,7.90
2019-05-05T21:55:49.220Z,7.70
2019-05-05T22:00:54.802Z,6.90
2019-05-05T22:05:40.666Z,6.43
2019-05-05T22:10:26.688Z,7.57
2019-05-05T22:15:13.765Z,6.90
2019-05-05T22:20:14.333Z,8.60
2019-05-05T22:25:00.199Z,8.77
2019-05-05T22:29:46.168Z,7.53
2019-05-05T22:34:33.508Z,7.80
2019-05-05T22:39:19.439Z,9.53
2019-05-05T22:44:05.850Z,10.27
2019-05-05T22:48:51.707Z,11.30
2019-05-05T22:53:37.422Z,10.13
2019-05-05T22:58:24.185Z,9.67
2019-05-05T23:03:20.483Z,9.87
2019-05-05T23:08:06.540Z,9.30
2019-05-05T23:12:54.320Z,9.50
2019-05-05T23:17:58.022Z,9.00
2019-05-05T23:22:57.169Z,8.93
2019-05-05T23:27:49.708Z,9.53
2019-05-05T23:32:35.507Z,9.70
2019-05-05T23:37:21.372Z,9.57
2019-05-05T23:42:07.118Z,10.23
2019-05-05T23:46:53.776Z,9.97
2019-05-05T23:51:39.700Z,9.47
2019-05-05T23:56:25.436Z,10.03
